Time;durP1;ratioP1;P1;durP2;ratioP2;P2;SDS_P1;SDS_P2;PMS_P1;PMS_P2;Temp;Humidity;BMP_temperature;BMP_pressure;BME280_temperature;BME280_humidity;BME280_pressure;Samples;Min_cycle;Max_cycle;Signal;HPM_P1;HPM_P2
2023/08/08 00:00:13;;;;;;;1.52;1.00;;;;;;;19.65;66.59;99221.41;6132785;23;20392;-87
2023/08/08 00:02:41;;;;;;;4.50;1.17;;;;;;;19.48;66.32;99193.09;6131985;23;20001;-87
2023/08/08 00:05:07;;;;;;;1.38;1.10;;;;;;;19.38;67.15;99204.41;6107325;23;20478;-85
2023/08/08 00:07:33;;;;;;;1.60;1.13;;;;;;;19.29;69.05;99209.94;6123096;23;20027;-86
2023/08/08 00:09:58;;;;;;;1.58;1.02;;;;;;;19.23;69.04;99207.72;6196248;23;20019;-85
2023/08/08 00:12:23;;;;;;;1.88;1.00;;;;;;;19.10;71.51;99195.91;6196522;23;20004;-85
2023/08/08 00:14:49;;;;;;;1.75;1.25;;;;;;;19.16;71.64;99202.78;6195216;23;20000;-86
2023/08/08 00:17:15;;;;;;;1.67;1.20;;;;;;;19.31;71.83;99213.13;6195452;23;20004;-86
2023/08/08 00:19:40;;;;;;;2.40;1.27;;;;;;;19.21;73.78;99177.22;6195803;23;20000;-86
2023/08/08 00:22:06;;;;;;;2.35;1.10;;;;;;;19.26;70.44;99180.56;6195959;23;20007;-86
2023/08/08 00:24:32;;;;;;;1.30;0.93;;;;;;;19.14;70.50;99169.56;6196158;23;20000;-86
2023/08/08 00:26:57;;;;;;;2.80;1.05;;;;;;;19.17;72.31;99186.09;6191726;23;20001;-85
2023/08/08 00:29:22;;;;;;;1.95;1.30;;;;;;;19.14;73.20;99175.03;6192206;23;19997;-86
2023/08/08 00:31:48;;;;;;;3.70;1.10;;;;;;;19.03;76.12;99171.88;6168009;23;20027;-85
2023/08/08 00:34:13;;;;;;;1.70;1.20;;;;;;;18.97;75.88;99182.19;6161734;23;20015;-85
2023/08/08 00:36:39;;;;;;;1.55;1.05;;;;;;;18.87;75.02;99203.56;6170294;23;19995;-85
2023/08/08 00:39:04;;;;;;;1.20;0.90;;;;;;;18.88;76.83;99192.31;6146368;23;20006;-86
2023/08/08 00:41:30;;;;;;;1.40;1.00;;;;;;;18.88;76.04;99175.16;6146603;23;20046;-86
2023/08/08 00:43:55;;;;;;;2.38;1.30;;;;;;;18.86;75.47;99191.06;6146146;23;20002;-86
2023/08/08 00:46:21;;;;;;;4.00;1.45;;;;;;;18.95;78.25;99181.72;6146542;23;19999;-86
2023/08/08 00:48:47;;;;;;;3.30;1.40;;;;;;;19.05;76.42;99185.19;6171103;23;20002;-86
2023/08/08 00:51:13;;;;;;;2.53;1.20;;;;;;;19.05;78.30;99207.00;6146476;23;20070;-85
2023/08/08 00:53:38;;;;;;;2.05;1.30;;;;;;;18.91;76.53;99179.97;6146439;23;20006;-85
2023/08/08 00:56:04;;;;;;;6.05;1.42;;;;;;;18.95;74.83;99203.53;6145725;23;20013;-86
2023/08/08 00:58:30;;;;;;;3.05;1.45;;;;;;;18.93;75.08;99200.34;6146675;23;20010;-86
2023/08/08 01:00:57;;;;;;;1.95;1.20;;;;;;;18.83;77.65;99195.25;6146138;23;20057;-87
2023/08/08 01:03:23;;;;;;;1.60;1.23;;;;;;;18.80;74.95;99193.19;6171791;23;20006;-87
2023/08/08 01:06:01;;;;;;;1.50;1.10;;;;;;;18.90;75.87;99189.28;6196214;23;20006;-86
2023/08/08 01:08:30;;;;;;;5.38;1.38;;;;;;;18.79;76.81;99199.75;6148005;23;19995;-86
2023/08/08 01:10:55;;;;;;;2.75;1.35;;;;;;;18.97;78.96;99214.91;6146379;23;20353;-86
2023/08/08 01:13:22;;;;;;;2.85;1.15;;;;;;;18.61;75.06;99200.91;6170557;23;20005;-86
2023/08/08 01:15:50;;;;;;;3.50;1.20;;;;;;;18.69;77.64;99200.88;6170851;23;20033;-86
2023/08/08 01:18:15;;;;;;;1.92;1.00;;;;;;;18.73;77.38;99206.50;6145701;23;20444;-85
2023/08/08 01:20:42;;;;;;;2.40;1.10;;;;;;;18.66;75.37;99198.81;6146354;23;19986;-86
2023/08/08 01:23:28;;;;;;;2.00;1.10;;;;;;;18.73;73.60;99215.47;6146405;23;20010;-87
2023/08/08 01:25:54;;;;;;;2.90;1.20;;;;;;;18.52;75.12;99211.84;6170737;23;20011;-85
2023/08/08 01:28:25;;;;;;;1.38;0.93;;;;;;;18.56;76.27;99223.72;6171214;23;19995;-86
2023/08/08 01:30:51;;;;;;;1.70;1.05;;;;;;;18.60;75.70;99221.13;6146896;23;20009;-85
2023/08/08 01:33:16;;;;;;;14.82;1.55;;;;;;;18.56;75.37;99215.53;6145339;23;20003;-85
2023/08/08 01:35:46;;;;;;;1.38;0.88;;;;;;;18.56;73.55;99235.41;6145231;23;20018;-84
2023/08/08 01:38:17;;;;;;;1.15;0.88;;;;;;;18.51;72.87;99221.13;6170669;23;20401;-86
2023/08/08 01:40:43;;;;;;;1.63;1.20;;;;;;;18.36;74.58;99228.75;6145643;23;20074;-85
2023/08/08 01:43:09;;;;;;;2.53;1.20;;;;;;;18.35;74.14;99243.47;6170526;23;20089;-86
2023/08/08 01:45:36;;;;;;;1.45;0.80;;;;;;;18.26;72.64;99242.72;6171634;23;20010;-86
2023/08/08 01:48:09;;;;;;;1.50;0.90;;;;;;;18.23;73.47;99262.41;6170537;23;19994;-86
2023/08/08 01:50:35;;;;;;;1.30;0.90;;;;;;;18.16;71.73;99265.63;6170786;23;20041;-86
2023/08/08 01:53:00;;;;;;;2.58;1.00;;;;;;;18.09;74.89;99268.03;6170050;23;20449;-85
2023/08/08 01:55:26;;;;;;;3.47;1.40;;;;;;;17.88;74.82;99248.78;6146455;23;20006;-86
2023/08/08 01:57:51;;;;;;;2.53;1.13;;;;;;;17.69;74.72;99221.03;6170347;23;20007;-86
2023/08/08 02:00:17;;;;;;;1.95;1.23;;;;;;;17.74;77.84;99227.16;6170484;23;20002;-86
2023/08/08 02:02:42;;;;;;;1.65;1.17;;;;;;;17.92;75.69;99254.41;6169733;23;20060;-86
2023/08/08 02:05:08;;;;;;;2.72;1.40;;;;;;;17.80;76.08;99238.66;6170380;23;20433;-86
2023/08/08 02:07:33;;;;;;;2.15;1.33;;;;;;;17.77;76.95;99226.50;6169536;23;20010;-86
2023/08/08 02:09:59;;;;;;;2.05;1.40;;;;;;;17.64;80.09;99227.47;6145729;23;20326;-85
2023/08/08 02:12:25;;;;;;;5.97;1.50;;;;;;;17.73;78.46;99239.16;6145812;23;20006;-86
2023/08/08 02:14:50;;;;;;;1.75;1.23;;;;;;;17.64;78.05;99232.06;6146782;23;20433;-86
2023/08/08 02:17:16;;;;;;;2.58;1.60;;;;;;;17.67;76.60;99243.16;6145992;23;20010;-86
2023/08/08 02:19:41;;;;;;;3.38;1.50;;;;;;;17.58;76.90;99250.50;6145710;23;19998;-87
2023/08/08 02:22:07;;;;;;;2.30;1.63;;;;;;;17.41;80.44;99231.41;6145738;23;20349;-87
2023/08/08 02:24:32;;;;;;;2.30;1.60;;;;;;;17.26;77.87;99235.38;6145412;23;20001;-86
2023/08/08 02:26:58;;;;;;;1.30;1.02;;;;;;;17.13;76.43;99237.91;6145979;23;20358;-86
2023/08/08 02:29:23;;;;;;;2.72;1.55;;;;;;;17.23;79.23;99241.47;6168623;23;20083;-86
2023/08/08 02:31:49;;;;;;;1.65;1.25;;;;;;;17.17;79.15;99233.44;6169907;23;20009;-85
2023/08/08 02:34:17;;;;;;;3.58;1.50;;;;;;;17.30;78.45;99234.44;6145438;23;20021;-85
2023/08/08 02:36:42;;;;;;;1.90;1.38;;;;;;;17.20;80.15;99218.38;6146316;23;20033;-84
2023/08/08 02:39:08;;;;;;;2.72;2.00;;;;;;;17.13;81.56;99231.66;6145584;23;19998;-86
2023/08/08 02:41:33;;;;;;;3.03;2.22;;;;;;;17.12;82.12;99238.22;6146368;23;20060;-86
2023/08/08 02:43:59;;;;;;;2.63;2.03;;;;;;;17.12;81.71;99260.81;6171021;23;19990;-86
2023/08/08 02:46:24;;;;;;;5.90;2.38;;;;;;;16.92;82.21;99256.72;6170214;23;20037;-86
2023/08/08 02:48:50;;;;;;;2.35;1.75;;;;;;;17.02;81.50;99273.88;6169810;23;20438;-86
2023/08/08 02:51:15;;;;;;;4.05;1.98;;;;;;;17.21;81.87;99293.47;6145403;23;20010;-86
2023/08/08 02:53:41;;;;;;;3.15;1.65;;;;;;;17.23;80.63;99295.88;6146254;23;20005;-85
2023/08/08 02:56:06;;;;;;;2.70;1.63;;;;;;;17.14;82.28;99284.94;6170674;23;19999;-85
2023/08/08 02:58:32;;;;;;;1.60;1.20;;;;;;;17.13;76.85;99280.63;6169902;23;20006;-86
2023/08/08 03:00:57;;;;;;;2.75;1.40;;;;;;;16.95;78.74;99286.03;6171190;23;19998;-86
2023/08/08 03:03:23;;;;;;;1.63;1.42;;;;;;;16.95;82.06;99290.63;6170234;23;19985;-86
2023/08/08 03:05:49;;;;;;;1.83;1.10;;;;;;;17.02;79.51;99296.44;6171353;23;19991;-85
2023/08/08 03:08:14;;;;;;;2.28;1.40;;;;;;;17.14;76.90;99312.16;6194789;23;20311;-85
2023/08/08 03:10:40;;;;;;;4.28;1.65;;;;;;;17.15;79.34;99322.75;6169794;23;20037;-85
2023/08/08 03:13:06;;;;;;;2.58;1.30;;;;;;;17.12;77.49;99325.28;6168722;23;20409;-86
2023/08/08 03:15:32;;;;;;;2.47;1.42;;;;;;;17.07;79.45;99328.16;6169748;23;20002;-87
2023/08/08 03:17:57;;;;;;;2.90;1.65;;;;;;;17.12;81.32;99342.41;6169557;23;20014;-86
2023/08/08 03:20:23;;;;;;;2.28;1.50;;;;;;;17.06;80.77;99330.06;6145081;23;20416;-86
2023/08/08 03:22:48;;;;;;;2.10;1.38;;;;;;;17.07;80.94;99328.16;6169754;23;20021;-86
2023/08/08 03:25:14;;;;;;;2.08;1.42;;;;;;;16.97;79.16;99326.47;6170846;23;20002;-86
2023/08/08 03:34:43;;;;;;;1.92;1.60;;;;;;;17.11;79.76;99362.56;6076080;23;20029;-86
2023/08/08 03:37:08;;;;;;;1.75;1.20;;;;;;;16.92;78.85;99349.19;6136149;23;20089;-86
2023/08/08 03:39:34;;;;;;;4.13;1.70;;;;;;;16.92;81.38;99353.81;6136545;23;20068;-86
2023/08/08 03:42:00;;;;;;;1.40;1.30;;;;;;;16.86;80.54;99357.78;6135555;23;20144;-86
2023/08/08 03:44:26;;;;;;;2.70;1.90;;;;;;;16.92;81.16;99360.06;6128894;23;20007;-87
2023/08/08 03:46:52;;;;;;;3.50;1.70;;;;;;;16.97;79.66;99367.28;6110173;23;20001;-87
2023/08/08 03:49:17;;;;;;;3.28;1.50;;;;;;;17.00;81.52;99365.88;6135711;23;20384;-86
2023/08/08 03:51:43;;;;;;;2.75;1.80;;;;;;;16.95;80.71;99362.19;6108451;23;20365;-87
2023/08/08 03:54:08;;;;;;;4.78;1.80;;;;;;;16.95;78.56;99367.63;6111166;23;20068;-88
2023/08/08 03:56:34;;;;;;;3.60;2.05;;;;;;;16.95;79.55;99366.78;6135880;23;20005;-85
2023/08/08 03:58:59;;;;;;;3.22;1.80;;;;;;;16.88;79.60;99356.34;6110971;23;20095;-87
2023/08/08 04:01:25;;;;;;;8.00;6.22;;;;;;;16.72;80.47;99364.06;6136201;23;20395;-92
2023/08/08 04:03:54;;;;;;;4.90;2.33;;;;;;;16.79;80.37;99366.38;6139096;23;19997;-89
2023/08/08 04:06:19;;;;;;;2.20;1.70;;;;;;;16.81;80.96;99368.78;6138053;23;20004;-92
2023/08/08 04:08:45;;;;;;;3.53;1.70;;;;;;;16.74;79.64;99358.31;6113921;23;20421;-93
2023/08/08 04:11:10;;;;;;;3.33;1.70;;;;;;;16.80;79.88;99367.94;6114005;23;19997;-93
2023/08/08 04:13:36;;;;;;;3.00;2.20;;;;;;;16.66;80.27;99369.94;6114134;23;20040;-92
2023/08/08 04:16:02;;;;;;;3.03;1.88;;;;;;;16.73;79.90;99373.84;6114058;23;20037;-93
2023/08/08 04:18:28;;;;;;;2.70;1.55;;;;;;;16.74;76.68;99369.97;6112185;23;20068;-92
2023/08/08 04:20:53;;;;;;;2.90;1.42;;;;;;;16.84;77.72;99385.28;6114546;23;20005;-93
2023/08/08 04:23:18;;;;;;;4.15;1.80;;;;;;;16.92;78.24;99384.53;6140138;23;20008;-93
2023/08/08 04:25:44;;;;;;;5.05;1.77;;;;;;;16.87;78.61;99386.56;6139211;23;20038;-94
2023/08/08 04:28:10;;;;;;;3.15;1.70;;;;;;;16.97;78.90;99402.66;6138377;23;19997;-96
2023/08/08 04:30:35;;;;;;;3.00;2.03;;;;;;;17.02;80.28;99404.47;6139246;23;20001;-94
2023/08/08 04:33:01;;;;;;;5.38;2.13;;;;;;;17.07;80.19;99402.38;6115592;23;20064;-92
2023/08/08 04:35:26;;;;;;;6.28;2.70;;;;;;;17.06;80.64;99411.69;6138421;23;20024;-92
2023/08/08 04:37:52;;;;;;;4.68;2.03;;;;;;;17.06;81.06;99416.31;6114974;23;20008;-94
2023/08/08 04:40:49;;;;;;;4.50;2.50;;;;;;;16.91;82.36;99404.72;6117160;23;19997;-94
2023/08/08 04:43:14;;;;;;;5.55;2.30;;;;;;;16.92;80.50;99379.09;6146361;23;20001;-94
2023/08/08 04:45:40;;;;;;;6.50;3.03;;;;;;;17.03;82.46;99401.41;6140454;23;19997;-94
2023/08/08 04:48:06;;;;;;;5.00;2.08;;;;;;;17.09;79.67;99411.03;6141010;23;20372;-94
2023/08/08 04:50:31;;;;;;;3.00;2.00;;;;;;;17.03;79.02;99408.78;6141080;23;20001;-90
2023/08/08 04:52:57;;;;;;;3.45;1.80;;;;;;;16.83;78.36;99410.88;6116268;23;20087;-92
2023/08/08 04:55:22;;;;;;;3.83;2.60;;;;;;;16.75;80.87;99411.59;6115460;23;20004;-94
2023/08/08 04:57:48;;;;;;;6.13;5.30;;;;;;;16.73;83.87;99430.13;6138785;23;20032;-91
2023/08/08 05:00:14;;;;;;;7.50;5.97;;;;;;;16.54;84.04;99433.03;6141763;23;20001;-92
2023/08/08 05:06:12;;;;;;;9.43;6.37;;;;;;;16.53;85.77;99409.66;6192015;23;20013;-93
2023/08/08 05:08:37;;;;;;;9.98;6.60;;;;;;;16.64;84.17;99430.03;6140005;23;20019;-92
2023/08/08 05:11:03;;;;;;;6.70;5.70;;;;;;;16.38;84.25;99410.00;6139018;23;20001;-93
2023/08/08 05:13:28;;;;;;;6.57;4.85;;;;;;;16.50;84.30;99421.94;6140930;23;20028;-92
2023/08/08 05:15:54;;;;;;;7.60;5.07;;;;;;;16.55;85.25;99429.19;6140341;23;20005;-95
2023/08/08 05:18:25;;;;;;;7.95;4.68;;;;;;;16.37;84.76;99422.78;6142431;23;20001;-96
2023/08/08 05:21:06;;;;;;;7.22;4.82;;;;;;;16.46;85.08;99447.34;6146114;23;20340;-94
2023/08/08 05:23:44;;;;;;;6.20;4.83;;;;;;;16.54;86.19;99449.34;6120680;23;20008;-94
2023/08/08 05:26:10;;;;;;;5.40;3.72;;;;;;;16.69;82.90;99483.53;6142880;23;20000;-94
2023/08/08 05:28:35;;;;;;;8.40;3.92;;;;;;;16.60;84.12;99480.72;6141461;23;20027;-94
2023/08/08 05:31:01;;;;;;;7.20;4.70;;;;;;;16.62;84.52;99494.81;6142715;23;20000;-95
2023/08/08 05:33:27;;;;;;;12.13;5.10;;;;;;;16.55;86.11;99502.56;6144184;23;20008;-95
2023/08/08 05:35:52;;;;;;;6.18;4.38;;;;;;;16.65;85.65;99488.75;6144092;23;20051;-95
2023/08/08 05:38:18;;;;;;;7.97;4.20;;;;;;;16.74;85.14;99502.44;6120456;23;20352;-95
2023/08/08 05:40:43;;;;;;;4.65;3.08;;;;;;;16.74;82.99;99484.19;6145563;23;20007;-95
2023/08/08 05:43:10;;;;;;;3.22;2.47;;;;;;;16.81;80.25;99488.44;6120941;23;20012;-93
2023/08/08 05:45:36;;;;;;;10.93;5.53;;;;;;;16.72;83.00;99475.53;6116415;23;20007;-96
2023/08/08 05:48:02;;;;;;;17.85;11.35;;;;;;;16.68;84.54;99487.34;6120552;23;20037;-96
2023/08/08 05:50:28;;;;;;;9.60;6.22;;;;;;;16.55;85.55;99470.75;6142369;23;20001;-95
2023/08/08 05:52:54;;;;;;;13.65;7.88;;;;;;;16.71;85.92;99503.84;6144713;23;20007;-96
2023/08/08 05:55:22;;;;;;;12.07;6.95;;;;;;;16.55;85.92;99489.78;6147293;23;20001;-96
2023/08/08 06:01:36;;;;;;;;;;;;;;;16.67;86.56;99524.59;6112086;23;20010;-95
2023/08/08 06:04:07;;;;;;;8.90;8.00;;;;;;;16.56;87.56;99501.47;6181260;23;19896;-95
2023/08/08 06:06:33;;;;;;;9.55;6.93;;;;;;;16.56;85.78;99483.25;6147535;23;20155;-94
2023/08/08 06:08:58;;;;;;;7.45;5.63;;;;;;;16.55;84.89;99506.09;6121937;23;19996;-96
2023/08/08 06:11:38;;;;;;;20.15;7.25;;;;;;;16.56;86.21;99496.84;6150355;23;20005;-96
2023/08/08 06:14:04;;;;;;;16.65;7.60;;;;;;;16.62;86.68;99518.47;6116072;23;20381;-96
2023/08/08 06:22:22;;;;;;;8.07;5.05;;;;;;;16.89;86.02;99540.19;6266887;22;20030;-96
2023/08/08 06:27:23;;;;;;;10.77;8.05;;;;;;;16.80;86.29;99514.78;6276054;22;20027;-96
2023/08/08 06:29:49;;;;;;;13.85;8.70;;;;;;;16.80;84.71;99522.16;6213252;22;20077;-88
2023/08/08 06:32:14;;;;;;;16.05;7.63;;;;;;;16.71;85.08;99500.34;6204446;22;20003;-87
2023/08/08 06:34:49;;;;;;;12.10;7.38;;;;;;;16.84;84.52;99534.88;6205650;22;19996;-90
2023/08/08 06:37:14;;;;;;;14.02;6.53;;;;;;;16.82;84.21;99511.81;6235775;22;19991;-88
2023/08/08 06:39:45;;;;;;;15.63;8.45;;;;;;;16.75;85.20;99493.97;6211903;22;20006;-90
2023/08/08 06:42:11;;;;;;;6.63;4.65;;;;;;;16.86;84.75;99526.41;6212633;22;19995;-87
2023/08/08 06:44:46;;;;;;;10.80;8.60;;;;;;;17.05;85.60;99534.41;6207107;22;20063;-89
2023/08/08 06:47:11;;;;;;;105.30;69.57;;;;;;;17.01;85.01;99525.25;6214301;22;20357;-89
2023/08/08 06:49:39;;;;;;;13.02;8.52;;;;;;;17.07;84.38;99551.22;6213782;22;20003;-94
2023/08/08 06:52:05;;;;;;;8.20;5.60;;;;;;;17.10;83.26;99520.66;6241936;22;20004;-91
2023/08/08 06:55:31;;;;;;;;;;;;;;;;;;;;;
2023/08/08 06:57:57;;;;;;;16.23;9.10;;;;;;;17.21;83.71;99551.97;6148586;22;20039;-88
2023/08/08 07:03:57;;;;;;;16.92;9.23;;;;;;;17.10;84.06;99520.66;6194192;23;20011;-89
2023/08/08 07:06:28;;;;;;;20.15;10.90;;;;;;;17.05;85.26;99526.25;6205968;22;20004;-92
2023/08/08 07:08:54;;;;;;;16.67;7.95;;;;;;;17.09;83.27;99536.19;6210467;22;20019;-88
2023/08/08 07:11:22;;;;;;;10.65;6.80;;;;;;;17.02;84.45;99513.28;6235314;22;20018;-88
2023/08/08 07:14:03;;;;;;;;;;;;;;;;;;;;;
2023/08/08 07:16:32;;;;;;;8.75;5.85;;;;;;;17.19;84.48;99524.28;6236358;22;20026;-91
2023/08/08 07:19:02;;;;;;;6.95;4.00;;;;;;;17.25;83.61;99508.63;6209645;22;20032;-95
2023/08/08 07:27:02;;;;;;;8.18;4.40;;;;;;;17.53;81.25;99512.81;6215794;22;20089;-96
2023/08/08 07:29:27;;;;;;;14.00;7.30;;;;;;;17.48;81.38;99498.53;6217465;22;20018;-87
2023/08/08 07:31:53;;;;;;;6.03;3.55;;;;;;;17.56;78.94;99501.31;6234669;23;20005;-89
2023/08/08 07:34:32;;;;;;;6.25;4.00;;;;;;;17.83;81.13;99509.66;6232604;23;20001;-90
2023/08/08 07:37:16;;;;;;;4.80;3.30;;;;;;;18.13;80.63;99536.03;6212559;22;20007;-90
2023/08/08 07:40:40;;;;;;;12.85;10.48;;;;;;;18.45;81.19;99536.81;6216691;23;20033;-89
2023/08/08 07:43:09;;;;;;;7.05;4.72;;;;;;;18.26;79.27;99509.81;6259164;22;20005;-89
2023/08/08 07:45:35;;;;;;;4.95;3.25;;;;;;;18.20;81.80;99524.72;6209388;22;20032;-90
2023/08/08 07:48:00;;;;;;;7.90;2.85;;;;;;;18.07;81.72;99522.88;6209992;22;20294;-89
2023/08/08 07:50:26;;;;;;;5.00;2.78;;;;;;;17.92;81.16;99507.75;6234287;22;20013;-91
2023/08/08 07:52:51;;;;;;;6.88;3.80;;;;;;;17.87;78.60;99514.16;6236547;22;20001;-87
2023/08/08 07:55:17;;;;;;;14.98;6.85;;;;;;;17.97;79.14;99516.59;6233264;23;20001;-89
2023/08/08 07:57:43;;;;;;;4.07;2.92;;;;;;;18.08;79.62;99516.31;6213525;23;20012;-90
2023/08/08 08:00:12;;;;;;;5.03;3.08;;;;;;;18.34;77.74;99511.78;6214449;22;20055;-88
2023/08/08 08:02:41;;;;;;;5.25;3.80;;;;;;;18.48;80.21;99519.00;6220375;22;20020;-92
2023/08/08 08:05:09;;;;;;;7.78;3.90;;;;;;;18.57;79.83;99531.53;6238347;22;20495;-88
2023/08/08 08:07:35;;;;;;;8.50;3.30;;;;;;;18.64;79.90;99522.09;6234303;23;19997;-90
2023/08/08 08:10:05;;;;;;;4.53;3.42;;;;;;;18.58;79.45;99518.69;6213376;22;20017;-87
2023/08/08 08:12:34;;;;;;;6.60;3.55;;;;;;;18.58;79.66;99515.97;6211696;22;20005;-87
2023/08/08 08:15:05;;;;;;;9.85;3.38;;;;;;;18.54;78.94;99507.63;6212353;22;20428;-90
2023/08/08 08:17:31;;;;;;;;;;;;;;;18.74;79.58;99533.50;6214843;22;20139;-90
2023/08/08 08:20:07;;;;;;;;;;;;;;;;;;;;;
2023/08/08 08:22:42;;;;;;;7.95;4.70;;;;;;;18.67;78.14;99514.06;6228891;23;20024;-89
2023/08/08 08:25:13;;;;;;;11.07;8.38;;;;;;;18.73;77.88;99485.50;6215876;23;20053;-94
2023/08/08 08:27:39;;;;;;;;;;;;;;;19.15;75.52;99526.81;6216362;22;20009;-88
2023/08/08 08:30:06;;;;;;;78.93;37.42;;;;;;;19.06;73.21;99506.09;6234912;23;20228;-90
2023/08/08 08:32:36;;;;;;;9.88;5.40;;;;;;;19.13;75.69;99500.94;6214402;22;20001;-88
2023/08/08 08:35:04;;;;;;;128.63;103.88;;;;;;;19.18;75.71;99493.41;6213960;23;20053;-87
2023/08/08 08:37:31;;;;;;;7.45;4.10;;;;;;;19.41;72.62;99495.13;6108072;23;20020;-88
2023/08/08 08:43:00;;;;;;;3.78;2.72;;;;;;;19.71;66.29;99509.69;6251936;22;20023;-89
2023/08/08 08:45:28;;;;;;;2.25;1.20;;;;;;;19.66;62.41;99493.47;6175610;23;20004;-86
2023/08/08 08:48:20;;;;;;;3.53;1.92;;;;;;;19.90;64.74;99485.53;6206402;23;20004;-86
2023/08/08 08:50:46;;;;;;;2.15;1.10;;;;;;;19.90;59.90;99462.84;6238779;23;20014;-85
2023/08/08 08:53:11;;;;;;;11.98;2.97;;;;;;;20.12;66.14;99484.44;6202346;23;20050;-89
2023/08/08 08:55:46;;;;;;;5.05;2.03;;;;;;;20.28;63.20;99484.69;6204146;23;20007;-90
2023/08/08 08:58:41;;;;;;;1.90;0.93;;;;;;;20.07;58.38;99470.97;6167440;23;19996;-96
2023/08/08 09:01:33;;;;;;;2.67;1.35;;;;;;;20.03;57.82;99461.03;6140786;23;20493;-88
2023/08/08 09:04:02;;;;;;;2.97;1.95;;;;;;;20.30;61.58;99471.50;6114547;23;20033;-88
2023/08/08 09:06:38;;;;;;;1.98;1.25;;;;;;;20.52;56.12;99488.72;6119828;23;20002;-92
2023/08/08 09:09:22;;;;;;;2.08;1.30;;;;;;;20.57;57.42;99505.75;6117484;23;20084;-92
2023/08/08 09:11:55;;;;;;;1.33;0.98;;;;;;;20.40;56.70;99467.59;6142198;23;20005;-90
2023/08/08 09:14:52;;;;;;;;;;;;;;;;;;;;;
2023/08/08 09:17:18;;;;;;;2.05;0.93;;;;;;;20.97;56.37;99474.41;6113005;23;20127;-88
2023/08/08 09:19:44;;;;;;;2.08;0.80;;;;;;;21.14;55.04;99489.88;6105686;23;20433;-89
2023/08/08 09:22:13;;;;;;;1.08;0.90;;;;;;;21.10;54.44;99461.56;6106151;23;20065;-89
2023/08/08 09:24:42;;;;;;;2.35;1.60;;;;;;;21.32;57.18;99457.66;6110845;23;20085;-91
2023/08/08 09:27:08;;;;;;;3.60;1.20;;;;;;;21.39;56.75;99457.91;6074942;23;20022;-87
2023/08/08 09:29:36;;;;;;;4.10;1.20;;;;;;;21.57;54.53;99459.34;6099577;23;20091;-86
2023/08/08 09:32:04;;;;;;;1.58;0.93;;;;;;;21.73;52.55;99459.47;6125923;23;20008;-87
2023/08/08 09:34:35;;;;;;;5.07;1.20;;;;;;;21.51;54.09;99455.22;6144423;23;20068;-87
2023/08/08 09:37:10;;;;;;;5.80;2.50;;;;;;;21.83;55.42;99463.72;6142937;23;20051;-88
2023/08/08 09:39:37;;;;;;;1.92;1.42;;;;;;;21.94;55.09;99464.06;6141360;23;20399;-88
2023/08/08 09:44:52;;;;;;;17.05;11.30;;;;;;;21.95;51.20;99454.69;6094364;23;20077;-96
2023/08/08 09:47:17;;;;;;;50.70;41.28;;;;;;;21.98;49.99;99451.28;6119683;23;19990;-94
2023/08/08 09:49:48;;;;;;;2.40;1.80;;;;;;;22.10;49.60;99445.78;6212256;23;19989;-91
2023/08/08 09:52:17;;;;;;;2.67;1.77;;;;;;;22.26;50.30;99445.09;6193267;23;20002;-96
2023/08/08 09:54:48;;;;;;;5.40;4.22;;;;;;;22.45;48.80;99456.25;6210812;23;20409;-95
2023/08/08 09:57:31;;;;;;;2.35;1.45;;;;;;;22.80;51.18;99467.50;6190607;23;20013;-94
2023/08/08 09:59:57;;;;;;;2.90;1.40;;;;;;;22.59;48.34;99450.41;6243272;23;20029;-95
2023/08/08 10:02:31;;;;;;;4.15;1.20;;;;;;;22.70;47.58;99443.31;6215595;23;20017;-95
2023/08/08 10:04:58;;;;;;;1.25;0.70;;;;;;;22.72;45.62;99473.94;6190147;23;20428;-95
2023/08/08 10:07:32;;;;;;;4.57;1.10;;;;;;;22.74;47.73;99457.94;6208894;22;20008;-95
2023/08/08 10:15:56;;;;;;;1.67;0.60;;;;;;;22.74;45.38;99429.66;6291711;22;20092;-96
2023/08/08 10:18:22;;;;;;;1.33;0.90;;;;;;;22.68;43.58;99445.59;6248902;22;20003;-94
2023/08/08 10:21:09;;;;;;;4.00;0.82;;;;;;;22.79;44.28;99456.88;6271370;22;20014;-96
2023/08/08 10:23:40;;;;;;;1.40;1.00;;;;;;;22.59;46.60;99442.19;6215150;22;20004;-96
2023/08/08 10:26:18;;;;;;;1.25;0.90;;;;;;;22.56;45.72;99426.41;6241857;22;19995;-95
2023/08/08 10:29:26;;;;;;;1.33;0.70;;;;;;;22.88;46.28;99432.03;6220668;22;20446;-95
2023/08/08 10:35:07;;;;;;;0.73;0.70;;;;;;;22.59;45.95;99436.69;6257078;22;20052;-96
2023/08/08 10:38:01;;;;;;;1.08;0.70;;;;;;;22.70;44.81;99448.78;6332617;22;20371;-96
2023/08/08 10:40:35;;;;;;;0.98;0.70;;;;;;;22.67;45.75;99418.50;6359361;22;20025;-96
2023/08/08 10:45:48;;;;;;;3.08;0.98;;;;;;;22.93;41.92;99435.31;6299840;22;20024;-95
2023/08/08 10:55:49;;;;;;;0.70;0.60;;;;;;;23.29;42.93;99416.28;6171958;22;20019;-96
2023/08/08 10:58:54;;;;;;;1.05;0.75;;;;;;;23.72;40.66;99442.91;6176472;23;20009;-94
2023/08/08 11:01:31;;;;;;;5.90;0.90;;;;;;;24.07;39.51;99433.91;6155145;23;20005;-95
2023/08/08 11:04:06;;;;;;;;;;;;;;;;;;;;;
2023/08/08 11:09:33;;;;;;;1.10;0.63;;;;;;;24.50;38.16;99410.13;6318916;22;20007;-96
2023/08/08 11:12:28;;;;;;;;;;;;;;;24.87;39.01;99436.47;6301844;22;20015;-96
2023/08/08 11:22:52;;;;;;;1.00;0.80;;;;;;;24.59;36.22;99413.50;6319250;22;20027;-90
2023/08/08 11:25:18;;;;;;;1.95;0.70;;;;;;;24.47;36.42;99413.59;6240583;22;20037;-90
2023/08/08 11:27:52;;;;;;;2.13;1.00;;;;;;;24.39;36.48;99439.38;6239945;22;19999;-90
2023/08/08 11:30:22;;;;;;;0.50;0.50;;;;;;;24.08;36.25;99405.28;6239674;22;19999;-90
2023/08/08 11:32:48;;;;;;;0.50;0.50;;;;;;;24.19;36.87;99422.00;6241002;22;20023;-90
2023/08/08 11:35:43;;;;;;;34.67;18.58;;;;;;;24.16;38.99;99415.28;6241161;22;20059;-92
2023/08/08 11:38:14;;;;;;;2.45;1.88;;;;;;;24.14;34.93;99408.56;6270835;22;20007;-96
2023/08/08 11:43:18;;;;;;;0.80;0.40;;;;;;;24.45;34.65;99428.88;6319945;22;20030;-94
2023/08/08 11:45:47;;;;;;;6.07;4.50;;;;;;;24.55;36.88;99420.88;6272916;22;20015;-95
2023/08/08 11:48:37;;;;;;;1.77;0.70;;;;;;;24.35;36.62;99391.72;6276180;22;19996;-94
2023/08/08 11:54:00;;;;;;;1.48;0.70;;;;;;;24.51;35.08;99386.97;6294955;22;20375;-96
2023/08/08 11:56:26;;;;;;;0.98;0.75;;;;;;;24.57;36.30;99413.06;6245745;22;20006;-93
2023/08/08 11:58:54;;;;;;;1.35;0.73;;;;;;;24.68;36.64;99406.97;6214567;22;19996;-91
2023/08/08 12:01:30;;;;;;;6.85;1.05;;;;;;;24.56;36.25;99383.91;6214833;22;20029;-93
2023/08/08 12:03:56;;;;;;;0.82;0.73;;;;;;;24.63;35.64;99391.50;6215459;22;19999;-91
2023/08/08 12:06:21;;;;;;;3.00;0.93;;;;;;;24.64;35.65;99395.88;6235059;22;20220;-90
2023/08/08 12:08:53;;;;;;;2.42;1.00;;;;;;;24.51;34.57;99402.66;6210375;22;20008;-88
2023/08/08 12:11:51;;;;;;;1.33;0.75;;;;;;;24.33;35.78;99375.56;6236435;22;20445;-89
2023/08/08 12:14:20;;;;;;;1.80;0.68;;;;;;;24.35;36.00;99366.94;6236565;22;20083;-89
2023/08/08 12:16:47;;;;;;;1.67;0.80;;;;;;;24.54;36.53;99382.69;6209262;22;20065;-89
2023/08/08 12:22:47;;;;;;;2.35;0.75;;;;;;;24.76;36.09;99372.91;6248591;22;20003;-89
2023/08/08 12:25:13;;;;;;;0.98;0.70;;;;;;;24.68;35.76;99366.47;6208845;22;20010;-87
2023/08/08 12:27:42;;;;;;;0.88;0.75;;;;;;;24.86;35.48;99375.06;6206683;22;19988;-87
2023/08/08 12:30:08;;;;;;;12.32;10.82;;;;;;;24.61;34.68;99371.81;6208420;22;20004;-87
2023/08/08 12:33:11;;;;;;;2.47;1.17;;;;;;;24.95;35.89;99381.13;6206896;22;20003;-88
2023/08/08 12:35:47;;;;;;;0.70;0.57;;;;;;;24.84;33.53;99360.06;6230395;22;20000;-86
2023/08/08 12:38:14;;;;;;;0.65;0.50;;;;;;;24.80;33.60;99362.75;6230689;22;20435;-89
2023/08/08 12:40:39;;;;;;;2.35;0.40;;;;;;;24.90;35.05;99370.44;6206484;22;20000;-87
2023/08/08 12:43:05;;;;;;;1.00;0.77;;;;;;;24.98;34.70;99363.06;6205628;22;20003;-88
2023/08/08 12:45:31;;;;;;;0.85;0.50;;;;;;;25.22;34.58;99373.00;6207635;22;20070;-87
2023/08/08 12:47:58;;;;;;;7.30;3.63;;;;;;;25.51;34.69;99388.06;6206373;22;19996;-87
2023/08/08 12:50:28;;;;;;;2.45;1.05;;;;;;;25.51;33.37;99376.22;6234284;22;20002;-89
2023/08/08 12:52:53;;;;;;;0.82;0.50;;;;;;;25.42;32.69;99370.94;6209400;22;20008;-87
2023/08/08 12:55:19;;;;;;;6.80;4.75;;;;;;;25.67;34.58;99381.59;6209365;22;19999;-88
2023/08/08 12:57:45;;;;;;;1.35;0.75;;;;;;;25.64;34.04;99380.38;6210778;22;20000;-88
2023/08/08 13:00:12;;;;;;;0.70;0.60;;;;;;;25.46;34.59;99373.78;6233326;22;20430;-90
2023/08/08 13:02:38;;;;;;;1.05;0.60;;;;;;;25.24;34.80;99370.66;6209770;22;20003;-88
2023/08/08 13:05:06;;;;;;;1.55;0.70;;;;;;;25.34;34.83;99381.09;6207126;22;20144;-88